createdAt,value
2018-06-22T00:02:49.609Z,14.97
2018-06-22T00:07:52.596Z,14.92
2018-06-22T00:12:55.779Z,14.85
2018-06-22T00:17:58.779Z,14.84
2018-06-22T00:23:01.811Z,14.93
2018-06-22T00:28:04.834Z,14.80
2018-06-22T00:33:07.874Z,14.75
2018-06-22T00:38:10.890Z,14.84
2018-06-22T00:43:13.881Z,14.83
2018-06-22T00:48:16.921Z,14.80
2018-06-22T00:53:37.177Z,14.86
2018-06-22T00:58:40.317Z,14.90
2018-06-22T01:03:43.382Z,15.02
2018-06-22T01:08:46.381Z,15.12
2018-06-22T01:13:49.426Z,15.06
2018-06-22T01:18:52.587Z,15.06
2018-06-22T01:23:55.658Z,15.01
2018-06-22T01:29:05.114Z,14.92
2018-06-22T01:34:08.222Z,14.92
2018-06-22T01:39:11.225Z,14.87
2018-06-22T01:44:14.331Z,14.80
2018-06-22T01:49:17.339Z,14.91
2018-06-22T01:54:20.361Z,14.80
2018-06-22T01:59:23.351Z,14.90
2018-06-22T02:04:26.431Z,14.83
2018-06-22T02:09:29.433Z,14.92
2018-06-22T02:14:32.441Z,14.87
2018-06-22T02:19:35.460Z,14.85
2018-06-22T02:24:38.527Z,14.73
2018-06-22T02:29:41.552Z,14.82
2018-06-22T02:34:44.557Z,14.94
2018-06-22T02:39:47.610Z,14.92
2018-06-22T02:44:50.674Z,14.89
2018-06-22T02:49:53.714Z,14.88
2018-06-22T02:54:56.786Z,14.83
2018-06-22T02:59:59.827Z,14.82
2018-06-22T03:05:02.877Z,14.60
2018-06-22T03:10:06.382Z,14.60
2018-06-22T03:15:10.630Z,14.66
2018-06-22T03:20:13.726Z,14.70
2018-06-22T03:25:16.697Z,14.66
2018-06-22T03:30:19.770Z,14.88
2018-06-22T03:35:22.856Z,14.96
2018-06-22T03:40:25.940Z,14.96
2018-06-22T03:45:28.921Z,14.98
2018-06-22T03:50:31.939Z,14.99
2018-06-22T03:55:35.003Z,15.05
2018-06-22T04:00:38.044Z,14.92
2018-06-22T04:05:41.102Z,14.83
2018-06-22T04:10:44.146Z,14.75
2018-06-22T04:15:47.135Z,14.70
2018-06-22T04:20:50.226Z,14.72
2018-06-22T04:25:53.283Z,14.62
2018-06-22T04:30:56.341Z,14.66
2018-06-22T04:35:59.409Z,14.60
2018-06-22T04:41:02.537Z,14.38
2018-06-22T04:46:05.558Z,14.30
2018-06-22T04:51:08.621Z,14.13
2018-06-22T04:56:11.661Z,14.21
2018-06-22T05:01:14.691Z,14.19
2018-06-22T05:06:17.751Z,14.09
2018-06-22T05:11:20.765Z,14.11
2018-06-22T05:16:23.814Z,13.95
2018-06-22T05:21:26.821Z,14.02
2018-06-22T05:26:29.865Z,14.05
2018-06-22T05:31:32.933Z,13.94
2018-06-22T05:36:35.985Z,14.01
2018-06-22T05:41:39.409Z,14.09
2018-06-22T05:46:42.414Z,13.95
2018-06-22T05:51:45.470Z,13.92
2018-06-22T05:56:48.554Z,13.85
2018-06-22T06:01:51.577Z,13.68
2018-06-22T06:06:54.713Z,13.66
2018-06-22T06:11:57.798Z,13.34
2018-06-22T06:17:00.862Z,13.20
2018-06-22T06:22:03.889Z,13.57
2018-06-22T06:27:06.931Z,13.87
2018-06-22T06:32:09.948Z,14.47
2018-06-22T06:37:12.990Z,14.83
2018-06-22T06:42:16.048Z,14.66
2018-06-22T06:47:19.054Z,14.58
2018-06-22T06:52:22.067Z,14.58
2018-06-22T06:57:25.079Z,14.66
2018-06-22T07:02:28.097Z,14.83
2018-06-22T07:07:31.109Z,15.20
2018-06-22T07:12:34.138Z,15.43
2018-06-22T07:17:37.189Z,15.95
2018-06-22T07:22:40.223Z,16.39
2018-06-22T07:27:43.299Z,16.36
2018-06-22T07:32:46.352Z,16.63
2018-06-22T07:37:49.368Z,16.45
2018-06-22T07:42:52.362Z,16.09
2018-06-22T07:47:55.373Z,16.46
2018-06-22T07:52:58.404Z,16.65
2018-06-22T07:58:01.518Z,17.29
2018-06-22T08:03:04.706Z,17.06
2018-06-22T08:08:07.734Z,16.29
2018-06-22T08:13:10.818Z,15.85
2018-06-22T08:18:13.845Z,15.65
2018-06-22T08:23:16.891Z,15.79
2018-06-22T08:28:20.060Z,16.15
2018-06-22T08:33:23.066Z,16.35
2018-06-22T08:38:26.088Z,16.67
2018-06-22T08:43:29.116Z,16.98
2018-06-22T08:48:32.277Z,17.73
2018-06-22T08:53:35.286Z,17.74
2018-06-22T08:58:38.352Z,17.87
2018-06-22T09:03:41.428Z,18.35
2018-06-22T09:08:44.435Z,18.82
2018-06-22T09:13:47.476Z,19.09
2018-06-22T09:18:50.514Z,19.06
2018-06-22T09:23:53.591Z,19.16
2018-06-22T09:28:56.623Z,19.73
2018-06-22T09:33:59.625Z,18.22
2018-06-22T09:39:02.918Z,17.40
2018-06-22T09:44:06.321Z,17.42
2018-06-22T09:49:09.396Z,17.48
2018-06-22T09:54:12.421Z,17.20
2018-06-22T09:59:15.437Z,17.40
2018-06-22T10:04:18.502Z,18.58
2018-06-22T10:09:21.526Z,19.73
2018-06-22T10:14:24.598Z,18.80
2018-06-22T10:19:27.670Z,17.23
2018-06-22T10:24:30.702Z,17.06
2018-06-22T10:29:33.774Z,18.24
2018-06-22T10:34:36.818Z,18.36
2018-06-22T10:39:39.927Z,18.37
2018-06-22T10:44:43.035Z,18.32
2018-06-22T10:49:46.171Z,18.42
2018-06-22T10:54:49.286Z,19.08
2018-06-22T10:59:52.467Z,19.42
2018-06-22T11:04:55.465Z,19.44
2018-06-22T11:09:58.540Z,20.10
2018-06-22T11:15:01.621Z,19.64
2018-06-22T11:20:04.906Z,19.15
2018-06-22T11:25:08.015Z,19.53
2018-06-22T11:30:11.280Z,19.62
2018-06-22T11:35:14.359Z,16.97
2018-06-22T11:40:17.473Z,16.59
2018-06-22T11:45:20.522Z,17.09
2018-06-22T11:50:23.634Z,17.65
2018-06-22T11:55:26.692Z,18.50
2018-06-22T12:00:29.796Z,19.49
2018-06-22T12:05:32.908Z,20.00
2018-06-22T12:10:35.959Z,20.47
2018-06-22T12:15:39.167Z,20.54
2018-06-22T12:20:42.423Z,20.02
2018-06-22T12:25:45.584Z,19.77
2018-06-22T12:30:48.719Z,20.44
2018-06-22T12:35:51.807Z,21.06
2018-06-22T12:40:54.866Z,20.70
2018-06-22T12:45:57.939Z,21.05
2018-06-22T12:51:01.040Z,20.71
2018-06-22T12:56:04.657Z,20.79
2018-06-22T13:01:08.117Z,20.67
2018-06-22T13:06:11.466Z,20.98
2018-06-22T13:11:14.659Z,21.35
2018-06-22T13:16:17.759Z,21.44
2018-06-22T13:21:20.835Z,21.77
2018-06-22T13:26:23.900Z,21.07
2018-06-22T13:31:26.943Z,20.43
2018-06-22T13:36:30.049Z,20.21
2018-06-22T13:41:33.107Z,20.44
2018-06-22T13:46:36.830Z,20.57
2018-06-22T13:51:40.091Z,20.54
2018-06-22T13:56:43.124Z,21.51
2018-06-22T14:01:46.244Z,22.37
2018-06-22T14:06:50.691Z,22.90
2018-06-22T14:11:53.873Z,21.83
2018-06-22T14:16:56.936Z,20.55
2018-06-22T14:22:00.017Z,18.86
2018-06-22T14:27:03.174Z,18.92
2018-06-22T14:32:06.276Z,19.70
2018-06-22T14:37:09.440Z,20.29
2018-06-22T14:42:12.486Z,20.40
2018-06-22T14:47:15.555Z,21.04
2018-06-22T14:52:18.662Z,20.75
2018-06-22T14:57:27.463Z,20.66
2018-06-22T15:02:36.163Z,20.96
2018-06-22T15:07:44.794Z,22.21
2018-06-22T15:12:47.842Z,23.03
2018-06-22T15:17:51.390Z,22.46
2018-06-22T15:22:54.421Z,21.58
2018-06-22T15:27:57.425Z,21.17
2018-06-22T15:33:00.548Z,21.40
2018-06-22T15:38:10.385Z,21.96
2018-06-22T15:43:19.343Z,22.64
2018-06-22T15:48:27.894Z,23.04
2018-06-22T15:53:36.496Z,23.02
2018-06-22T15:58:39.642Z,23.08
2018-06-22T16:03:48.271Z,22.66
2018-06-22T16:08:51.359Z,21.40
2018-06-22T16:14:01.205Z,20.61
2018-06-22T16:19:10.004Z,21.41
2018-06-22T16:24:18.701Z,21.82
2018-06-22T16:29:21.765Z,21.44
2018-06-22T16:34:24.855Z,21.52
2018-06-22T16:39:27.882Z,21.64
2018-06-22T16:44:30.909Z,21.71
2018-06-22T16:49:33.989Z,21.55
2018-06-22T16:54:38.324Z,21.44
2018-06-22T16:59:41.421Z,21.39
2018-06-22T17:04:44.451Z,20.89
2018-06-22T17:09:53.310Z,20.94
2018-06-22T17:15:01.889Z,20.84
2018-06-22T17:20:05.074Z,20.69
2018-06-22T17:25:08.102Z,21.02
2018-06-22T17:30:11.209Z,20.88
2018-06-22T17:35:14.299Z,21.04
2018-06-22T17:40:17.511Z,20.72
2018-06-22T17:45:20.646Z,20.40
2018-06-22T17:50:29.766Z,20.40
2018-06-22T17:55:32.893Z,20.14
2018-06-22T18:00:41.762Z,20.09
2018-06-22T18:06:54.110Z,20.21
2018-06-22T18:12:02.886Z,19.51
2018-06-22T18:17:05.974Z,19.48
2018-06-22T18:22:09.027Z,19.46
2018-06-22T18:27:12.086Z,19.12
2018-06-22T18:32:15.168Z,19.15
2018-06-22T18:37:18.282Z,18.88
2018-06-22T18:42:21.370Z,18.80
2018-06-22T18:47:24.376Z,18.59
2018-06-22T18:52:33.171Z,18.58
2018-06-22T18:57:41.915Z,18.61
2018-06-22T19:02:50.616Z,18.62
2018-06-22T19:07:53.716Z,18.52
2018-06-22T19:12:57.020Z,18.58
2018-06-22T19:18:00.207Z,18.34
2018-06-22T19:23:03.758Z,18.33
2018-06-22T19:28:09.714Z,18.32
2018-06-22T19:33:12.837Z,18.47
2018-06-22T19:38:15.897Z,18.30
2018-06-22T19:43:24.567Z,18.40
2018-06-22T19:49:37.025Z,18.26
2018-06-22T19:54:40.112Z,18.18
2018-06-22T19:59:43.178Z,18.16
2018-06-22T20:04:46.283Z,18.16
2018-06-22T20:09:49.422Z,18.15
2018-06-22T20:14:52.519Z,18.17
2018-06-22T20:19:55.600Z,18.03
2018-06-22T20:25:04.416Z,17.85
2018-06-22T20:30:07.527Z,17.97
2018-06-22T20:35:16.090Z,17.96
2018-06-22T20:41:22.427Z,17.79
2018-06-22T20:46:31.014Z,17.80
2018-06-22T20:51:43.400Z,17.82
2018-06-22T20:56:46.670Z,17.70
2018-06-22T21:01:49.797Z,17.70
2018-06-22T21:06:52.824Z,17.69
2018-06-22T21:11:58.737Z,17.63
2018-06-22T21:17:01.968Z,17.60
2018-06-22T21:22:11.227Z,17.51
2018-06-22T21:27:20.291Z,17.29
2018-06-22T21:32:29.070Z,17.22
2018-06-22T21:37:37.936Z,17.24
2018-06-22T21:42:41.003Z,17.18
2018-06-22T21:47:44.101Z,17.23
2018-06-22T21:52:47.131Z,17.17
2018-06-22T21:57:50.192Z,17.13
2018-06-22T22:02:53.546Z,17.09
2018-06-22T22:07:56.647Z,16.99
2018-06-22T22:12:59.774Z,16.90
2018-06-22T22:18:02.871Z,16.91
2018-06-22T22:23:05.965Z,16.90
2018-06-22T22:28:09.023Z,16.94
2018-06-22T22:33:12.053Z,16.84
2018-06-22T22:38:15.094Z,16.92
2018-06-22T22:43:18.192Z,16.75
2018-06-22T22:48:21.233Z,16.67
2018-06-22T22:53:24.302Z,16.45
2018-06-22T22:58:27.391Z,16.26
2018-06-22T23:03:30.549Z,16.18
2018-06-22T23:08:33.597Z,16.16
2018-06-22T23:13:36.662Z,16.27
2018-06-22T23:18:39.795Z,16.24
2018-06-22T23:23:42.923Z,16.21
2018-06-22T23:28:46.039Z,16.21
2018-06-22T23:33:49.145Z,16.17
2018-06-22T23:38:52.182Z,16.22
2018-06-22T23:43:55.343Z,16.25
2018-06-22T23:48:58.424Z,16.30
2018-06-22T23:54:01.515Z,16.24
2018-06-22T23:59:04.656Z,16.32
